Terminal Aerodrome Forecast
Issued by NWS

Home | Current Version | Previous Version | Text Only | Print | Product List | Glossary On
Versions: 1 2 3 4 5 6 7 8 9 10 11 12 13
000
FTPQ31 PGUM 271129
TAFTYA
TAF
PTYA 271129Z 2712/2812 VRB06KT P6SM VCSH FEW016 SCT040 BKN140
     FM280200 09009KT P6SM VCSH FEW016 SCT040 BKN140=

USA.gov is the U.S. government's official web portal to all federal, state and local government web resources and services.